createdAt,value
2018-06-21T00:00:54.912Z,1007.78
2018-06-21T00:01:54.908Z,1007.77
2018-06-21T00:02:54.894Z,1007.77
2018-06-21T00:03:54.881Z,1007.79
2018-06-21T00:04:54.873Z,1007.77
2018-06-21T00:05:54.861Z,1007.76
2018-06-21T00:06:54.851Z,1007.79
2018-06-21T00:07:54.841Z,1007.77
2018-06-21T00:08:54.830Z,1007.79
2018-06-21T00:09:54.821Z,1007.73
2018-06-21T00:10:54.810Z,1007.73
2018-06-21T00:11:54.800Z,1007.7
2018-06-21T00:12:54.790Z,1007.72
2018-06-21T00:13:54.787Z,1007.71
2018-06-21T00:14:54.769Z,1007.71
2018-06-21T00:15:54.762Z,1007.68
2018-06-21T00:16:54.752Z,1007.68
2018-06-21T00:17:54.740Z,1007.64
2018-06-21T00:18:54.729Z,1007.6
2018-06-21T00:19:54.717Z,1007.64
2018-06-21T00:20:54.709Z,1007.65
2018-06-21T00:21:54.697Z,1007.63
2018-06-21T00:22:54.689Z,1007.63
2018-06-21T00:23:54.678Z,1007.63
2018-06-21T00:24:54.669Z,1007.62
2018-06-21T00:25:54.656Z,1007.62
2018-06-21T00:26:54.646Z,1007.6
2018-06-21T00:27:54.643Z,1007.57
2018-06-21T00:28:54.624Z,1007.54
2018-06-21T00:29:54.613Z,1007.53
2018-06-21T00:30:54.603Z,1007.53
2018-06-21T00:31:54.596Z,1007.5
2018-06-21T00:32:54.585Z,1007.51
2018-06-21T00:33:54.574Z,1007.53
2018-06-21T00:34:54.567Z,1007.53
2018-06-21T00:35:54.552Z,1007.58
2018-06-21T00:36:54.541Z,1007.55
2018-06-21T00:37:54.531Z,1007.52
2018-06-21T00:38:54.523Z,1007.51
2018-06-21T00:39:54.509Z,1007.49
2018-06-21T00:40:54.503Z,1007.48
2018-06-21T00:41:54.492Z,1007.47
2018-06-21T00:42:54.482Z,1007.42
2018-06-21T00:43:54.478Z,1007.42
2018-06-21T00:44:54.460Z,1007.43
2018-06-21T00:45:54.449Z,1007.42
2018-06-21T00:46:54.436Z,1007.41
2018-06-21T00:47:54.427Z,1007.43
2018-06-21T00:48:54.417Z,1007.41
2018-06-21T00:49:54.416Z,1007.4
2018-06-21T00:50:54.394Z,1007.42
2018-06-21T00:51:54.386Z,1007.39
2018-06-21T00:52:54.372Z,1007.43
2018-06-21T00:53:54.364Z,1007.38
2018-06-21T00:54:54.353Z,1007.37
2018-06-21T00:55:54.342Z,1007.39
2018-06-21T00:56:54.333Z,1007.36
2018-06-21T00:57:54.324Z,1007.36
2018-06-21T00:58:54.308Z,1007.36
2018-06-21T00:59:54.305Z,1007.31
2018-06-21T01:00:54.291Z,1007.37
2018-06-21T01:01:54.285Z,1007.35
2018-06-21T01:02:54.271Z,1007.35
2018-06-21T01:03:54.256Z,1007.36
2018-06-21T01:04:54.248Z,1007.33
2018-06-21T01:05:54.235Z,1007.28
2018-06-21T01:06:54.225Z,1007.26
2018-06-21T01:07:54.214Z,1007.27
2018-06-21T01:08:54.204Z,1007.3
2018-06-21T01:09:54.195Z,1007.26
2018-06-21T01:10:54.182Z,1007.27
2018-06-21T01:11:54.172Z,1007.24
2018-06-21T01:12:54.160Z,1007.26
2018-06-21T01:13:54.150Z,1007.27
2018-06-21T01:14:54.144Z,1007.27
2018-06-21T01:15:54.330Z,1007.24
2018-06-21T01:16:54.116Z,1007.21
2018-06-21T01:17:54.106Z,1007.18
2018-06-21T01:18:54.096Z,1007.17
2018-06-21T01:19:54.088Z,1007.17
2018-06-21T01:20:54.073Z,1007.11
2018-06-21T01:21:54.064Z,1007.13
2018-06-21T01:22:54.055Z,1007.13
2018-06-21T01:23:54.042Z,1007.07
2018-06-21T01:24:54.034Z,1007.07
2018-06-21T01:25:54.019Z,1007.03
2018-06-21T01:26:54.008Z,1007.03
2018-06-21T01:27:53.999Z,1007.01
2018-06-21T01:28:53.988Z,1006.97
2018-06-21T01:29:53.979Z,1006.95
2018-06-21T01:30:53.964Z,1006.9
2018-06-21T01:31:53.956Z,1006.85
2018-06-21T01:32:53.943Z,1006.86
2018-06-21T01:33:53.932Z,1006.78
2018-06-21T01:34:53.920Z,1006.78
2018-06-21T01:35:53.908Z,1006.75
2018-06-21T01:36:53.897Z,1006.76
2018-06-21T01:37:53.888Z,1006.75
2018-06-21T01:38:53.876Z,1006.73
2018-06-21T01:39:53.866Z,1006.71
2018-06-21T01:40:53.855Z,1006.66
2018-06-21T01:41:53.843Z,1006.67
2018-06-21T01:42:53.832Z,1006.62
2018-06-21T01:43:53.819Z,1006.65
2018-06-21T01:44:53.812Z,1006.63
2018-06-21T01:45:53.798Z,1006.64
2018-06-21T01:46:53.788Z,1006.6
2018-06-21T01:47:53.778Z,1006.56
2018-06-21T01:48:53.764Z,1006.56
2018-06-21T01:49:53.754Z,1006.56
2018-06-21T01:50:53.746Z,1006.54
2018-06-21T01:51:53.788Z,1006.57
2018-06-21T01:52:53.720Z,1006.59
2018-06-21T01:53:53.713Z,1006.58
2018-06-21T01:54:53.699Z,1006.57
2018-06-21T01:55:53.687Z,1006.55
2018-06-21T01:56:53.675Z,1006.57
2018-06-21T01:57:53.663Z,1006.55
2018-06-21T01:58:53.655Z,1006.55
2018-06-21T01:59:53.640Z,1006.58
2018-06-21T02:00:53.631Z,1006.55
2018-06-21T02:01:53.622Z,1006.54
2018-06-21T02:02:53.612Z,1006.53
2018-06-21T02:03:53.599Z,1006.51
2018-06-21T02:04:53.585Z,1006.55
2018-06-21T02:05:53.576Z,1006.54
2018-06-21T02:06:53.565Z,1006.59
2018-06-21T02:07:53.554Z,1006.58
2018-06-21T02:08:53.545Z,1006.58
2018-06-21T02:09:53.532Z,1006.56
2018-06-21T02:10:53.525Z,1006.58
2018-06-21T02:11:53.508Z,1006.57
2018-06-21T02:12:53.499Z,1006.56
2018-06-21T02:13:53.488Z,1006.58
2018-06-21T02:14:53.475Z,1006.54
2018-06-21T02:15:53.465Z,1006.55
2018-06-21T02:16:53.453Z,1006.52
2018-06-21T02:17:53.443Z,1006.51
2018-06-21T02:18:53.431Z,1006.47
2018-06-21T02:19:53.420Z,1006.49
2018-06-21T02:20:53.408Z,1006.45
2018-06-21T02:21:53.396Z,1006.45
2018-06-21T02:22:53.390Z,1006.44
2018-06-21T02:23:53.373Z,1006.46
2018-06-21T02:24:53.365Z,1006.42
2018-06-21T02:25:53.350Z,1006.38
2018-06-21T02:26:53.339Z,1006.33
2018-06-21T02:27:53.331Z,1006.3
2018-06-21T02:28:53.317Z,1006.28
2018-06-21T02:29:53.307Z,1006.26
2018-06-21T02:30:53.295Z,1006.24
2018-06-21T02:31:53.285Z,1006.25
2018-06-21T02:32:53.323Z,1006.27
2018-06-21T02:33:53.262Z,1006.28
2018-06-21T02:34:53.251Z,1006.3
2018-06-21T02:35:53.244Z,1006.36
2018-06-21T02:36:53.229Z,1006.3
2018-06-21T02:37:53.219Z,1006.27
2018-06-21T02:38:53.206Z,1006.29
2018-06-21T02:39:53.193Z,1006.27
2018-06-21T02:40:53.203Z,1006.29
2018-06-21T02:41:53.171Z,1006.29
2018-06-21T02:42:53.163Z,1006.26
2018-06-21T02:43:53.148Z,1006.29
2018-06-21T02:44:53.191Z,1006.18
2018-06-21T02:45:53.128Z,1006.19
2018-06-21T02:46:53.116Z,1006.18
2018-06-21T02:47:53.106Z,1006.18
2018-06-21T02:48:53.091Z,1006.18
2018-06-21T02:49:53.084Z,1006.21
2018-06-21T02:50:53.070Z,1006.23
2018-06-21T02:51:53.060Z,1006.23
2018-06-21T02:52:53.050Z,1006.21
2018-06-21T02:53:53.037Z,1006.22
2018-06-21T02:54:53.026Z,1006.19
2018-06-21T02:55:53.015Z,1006.15
2018-06-21T02:56:53.004Z,1006.24
2018-06-21T02:57:52.992Z,1006.21
2018-06-21T02:58:52.980Z,1006.2
2018-06-21T02:59:52.971Z,1006.17
2018-06-21T03:00:52.961Z,1006.16
2018-06-21T03:01:52.950Z,1006.12
2018-06-21T03:02:52.937Z,1006.13
2018-06-21T03:03:52.965Z,1006.12
2018-06-21T03:04:52.916Z,1006.07
2018-06-21T03:05:52.903Z,1006.07
2018-06-21T03:06:52.893Z,1005.99
2018-06-21T03:07:52.882Z,1006.02
2018-06-21T03:08:52.871Z,1006.03
2018-06-21T03:09:52.858Z,1006.03
2018-06-21T03:10:52.849Z,1006
2018-06-21T03:11:52.838Z,1006
2018-06-21T03:12:52.829Z,1005.98
2018-06-21T03:13:52.819Z,1005.92
2018-06-21T03:14:52.804Z,1005.98
2018-06-21T03:15:52.996Z,1005.95
2018-06-21T03:16:52.783Z,1005.94
2018-06-21T03:17:52.773Z,1005.99
2018-06-21T03:18:52.765Z,1005.97
2018-06-21T03:19:52.749Z,1005.95
2018-06-21T03:20:52.737Z,1005.95
2018-06-21T03:21:52.728Z,1005.88
2018-06-21T03:22:52.718Z,1005.83
2018-06-21T03:23:52.704Z,1005.89
2018-06-21T03:24:52.693Z,1005.88
2018-06-21T03:25:52.685Z,1005.87
2018-06-21T03:26:52.673Z,1005.88
2018-06-21T03:27:52.663Z,1005.88
2018-06-21T03:28:52.652Z,1005.86
2018-06-21T03:29:52.639Z,1005.87
2018-06-21T03:30:52.630Z,1005.87
2018-06-21T03:31:52.618Z,1005.88
2018-06-21T03:32:52.605Z,1005.84
2018-06-21T03:33:52.592Z,1005.86
2018-06-21T03:34:52.585Z,1005.82
2018-06-21T03:35:52.571Z,1005.79
2018-06-21T03:36:52.570Z,1005.74
2018-06-21T03:37:52.549Z,1005.77
2018-06-21T03:38:52.537Z,1005.73
2018-06-21T03:39:52.530Z,1005.68
2018-06-21T03:40:52.520Z,1005.67
2018-06-21T03:41:52.505Z,1005.57
2018-06-21T03:42:52.492Z,1005.56
2018-06-21T03:43:52.483Z,1005.53
2018-06-21T03:44:52.473Z,1005.49
2018-06-21T03:45:52.460Z,1005.43
2018-06-21T03:46:52.449Z,1005.41
2018-06-21T03:47:52.441Z,1005.42
2018-06-21T03:48:52.430Z,1005.4
2018-06-21T03:49:52.415Z,1005.37
2018-06-21T03:50:52.403Z,1005.4
2018-06-21T03:51:52.392Z,1005.41
2018-06-21T03:52:52.382Z,1005.49
2018-06-21T03:53:52.371Z,1005.51
2018-06-21T03:54:52.358Z,1005.5
2018-06-21T03:55:52.348Z,1005.53
2018-06-21T03:56:52.334Z,1005.46
2018-06-21T03:57:52.325Z,1005.47
2018-06-21T03:58:52.312Z,1005.43
2018-06-21T03:59:52.304Z,1005.43
2018-06-21T04:00:52.289Z,1005.43
2018-06-21T04:01:52.278Z,1005.44
2018-06-21T04:02:52.269Z,1005.37
2018-06-21T04:03:52.288Z,1005.37
2018-06-21T04:04:52.244Z,1005.33
2018-06-21T04:05:52.284Z,1005.29
2018-06-21T04:06:52.223Z,1005.32
2018-06-21T04:07:52.211Z,1005.38
2018-06-21T04:08:52.200Z,1005.42
2018-06-21T04:09:52.191Z,1005.47
2018-06-21T04:10:52.179Z,1005.42
2018-06-21T04:11:52.165Z,1005.42
2018-06-21T04:12:52.157Z,1005.41
2018-06-21T04:13:52.142Z,1005.43
2018-06-21T04:14:52.131Z,1005.38
2018-06-21T04:15:52.120Z,1005.43
2018-06-21T04:16:52.109Z,1005.43
2018-06-21T04:17:52.101Z,1005.4
2018-06-21T04:18:52.092Z,1005.39
2018-06-21T04:19:52.076Z,1005.39
2018-06-21T04:20:52.067Z,1005.41
2018-06-21T04:21:52.053Z,1005.35
2018-06-21T04:22:52.040Z,1005.36
2018-06-21T04:23:52.031Z,1005.36
2018-06-21T04:24:52.020Z,1005.39
2018-06-21T04:25:52.009Z,1005.4
2018-06-21T04:26:51.998Z,1005.36
2018-06-21T04:27:51.990Z,1005.37
2018-06-21T04:28:51.977Z,1005.41
2018-06-21T04:29:51.964Z,1005.39
2018-06-21T04:30:51.953Z,1005.37
2018-06-21T04:31:51.947Z,1005.37
2018-06-21T04:32:51.933Z,1005.34
2018-06-21T04:33:51.922Z,1005.32
2018-06-21T04:34:51.908Z,1005.36
2018-06-21T04:35:51.897Z,1005.32
2018-06-21T04:36:51.886Z,1005.34
2018-06-21T04:37:51.884Z,1005.31
2018-06-21T04:38:51.871Z,1005.34
2018-06-21T04:39:51.854Z,1005.29
2018-06-21T04:40:51.842Z,1005.32
2018-06-21T04:41:51.830Z,1005.34
2018-06-21T04:42:51.824Z,1005.31
2018-06-21T04:43:51.812Z,1005.28
2018-06-21T04:44:51.801Z,1005.29
2018-06-21T04:45:51.813Z,1005.2
2018-06-21T04:46:51.778Z,1005.16
2018-06-21T04:47:51.767Z,1005.22
2018-06-21T04:48:51.754Z,1005.2
2018-06-21T04:49:51.745Z,1005.2
2018-06-21T04:50:51.735Z,1005.19
2018-06-21T04:51:51.724Z,1005.22
2018-06-21T04:52:51.714Z,1005.23
2018-06-21T04:53:51.703Z,1005.23
2018-06-21T04:54:51.692Z,1005.27
2018-06-21T04:55:51.681Z,1005.25
2018-06-21T04:56:51.669Z,1005.21
2018-06-21T04:57:51.659Z,1005.2
2018-06-21T04:58:51.646Z,1005.18
2018-06-21T04:59:51.637Z,1005.18
2018-06-21T05:00:51.625Z,1005.12
2018-06-21T05:01:51.618Z,1005.16
2018-06-21T05:02:51.605Z,1005.23
2018-06-21T05:03:51.596Z,1005.22
2018-06-21T05:04:51.585Z,1005.2
2018-06-21T05:05:51.574Z,1005.19
2018-06-21T05:06:51.561Z,1005.29
2018-06-21T05:07:51.556Z,1005.24
2018-06-21T05:08:51.539Z,1005.26
2018-06-21T05:09:51.528Z,1005.22
2018-06-21T05:10:51.518Z,1005.23
2018-06-21T05:11:51.507Z,1005.27
2018-06-21T05:12:51.497Z,1005.31
2018-06-21T05:13:51.487Z,1005.3
2018-06-21T05:14:51.476Z,1005.26
2018-06-21T05:15:51.467Z,1005.22
2018-06-21T05:16:51.455Z,1005.29
2018-06-21T05:17:51.447Z,1005.34
2018-06-21T05:18:51.435Z,1005.41
2018-06-21T05:19:51.426Z,1005.31
2018-06-21T05:20:51.416Z,1005.25
2018-06-21T05:21:51.401Z,1005.27
2018-06-21T05:22:51.393Z,1005.28
2018-06-21T05:23:51.380Z,1005.29
2018-06-21T05:24:51.369Z,1005.35
2018-06-21T05:25:51.357Z,1005.34
2018-06-21T05:26:51.352Z,1005.29
2018-06-21T05:27:51.337Z,1005.27
2018-06-21T05:28:51.326Z,1005.31
2018-06-21T05:29:51.316Z,1005.3
2018-06-21T05:30:51.306Z,1005.31
2018-06-21T05:31:51.293Z,1005.32
2018-06-21T05:32:51.282Z,1005.36
2018-06-21T05:33:51.272Z,1005.36
2018-06-21T05:34:51.262Z,1005.29
2018-06-21T05:35:51.251Z,1005.32
2018-06-21T05:36:51.240Z,1005.3
2018-06-21T05:37:51.231Z,1005.27
2018-06-21T05:38:51.218Z,1005.25
2018-06-21T05:39:51.209Z,1005.21
2018-06-21T05:40:51.198Z,1005.3
2018-06-21T05:41:51.184Z,1005.25
2018-06-21T05:42:51.175Z,1005.21
2018-06-21T05:43:51.162Z,1005.27
2018-06-21T05:44:51.153Z,1005.34
2018-06-21T05:45:51.141Z,1005.27
2018-06-21T05:46:51.130Z,1005.22
2018-06-21T05:47:51.118Z,1005.16
2018-06-21T05:48:51.108Z,1005.23
2018-06-21T05:49:51.097Z,1005.22
2018-06-21T05:50:51.087Z,1005.25
2018-06-21T05:51:51.075Z,1005.27
2018-06-21T05:52:51.064Z,1005.21
2018-06-21T05:53:51.054Z,1005.24
2018-06-21T05:54:51.047Z,1005.16
2018-06-21T05:55:51.031Z,1005.15
2018-06-21T05:56:51.022Z,1005.14
2018-06-21T05:57:51.008Z,1005.17
2018-06-21T05:58:51.000Z,1005.18
2018-06-21T05:59:50.986Z,1005.13
2018-06-21T06:00:50.974Z,1005.23
2018-06-21T06:01:51.001Z,1005.18
2018-06-21T06:02:50.952Z,1005.26
2018-06-21T06:03:50.939Z,1005.3
2018-06-21T06:04:50.927Z,1005.33
2018-06-21T06:05:50.917Z,1005.36
2018-06-21T06:06:50.906Z,1005.37
2018-06-21T06:07:50.894Z,1005.42
2018-06-21T06:08:50.883Z,1005.38
2018-06-21T06:09:50.870Z,1005.44
2018-06-21T06:10:50.861Z,1005.4
2018-06-21T06:11:50.850Z,1005.39
2018-06-21T06:12:50.839Z,1005.4
2018-06-21T06:13:50.824Z,1005.43
2018-06-21T06:14:50.816Z,1005.44
2018-06-21T06:15:50.807Z,1005.35
2018-06-21T06:16:50.796Z,1005.34
2018-06-21T06:17:50.779Z,1005.35
2018-06-21T06:18:50.771Z,1005.45
2018-06-21T06:19:50.756Z,1005.49
2018-06-21T06:20:50.747Z,1005.56
2018-06-21T06:21:50.732Z,1005.55
2018-06-21T06:22:50.723Z,1005.62
2018-06-21T06:23:50.714Z,1005.52
2018-06-21T06:24:50.698Z,1005.6
2018-06-21T06:25:50.687Z,1005.55
2018-06-21T06:26:50.674Z,1005.6
2018-06-21T06:27:50.665Z,1005.57
2018-06-21T06:28:50.656Z,1005.61
2018-06-21T06:29:50.642Z,1005.65
2018-06-21T06:30:50.628Z,1005.66
2018-06-21T06:31:50.619Z,1005.69
2018-06-21T06:32:50.604Z,1005.71
2018-06-21T06:33:50.590Z,1005.68
2018-06-21T06:34:50.580Z,1005.64
2018-06-21T06:35:50.573Z,1005.68
2018-06-21T06:36:50.559Z,1005.73
2018-06-21T06:37:50.545Z,1005.82
2018-06-21T06:38:50.532Z,1005.76
2018-06-21T06:39:50.521Z,1005.9
2018-06-21T06:40:50.510Z,1005.94
2018-06-21T06:41:50.556Z,1005.92
2018-06-21T06:42:50.485Z,1005.98
2018-06-21T06:43:50.474Z,1005.93
2018-06-21T06:44:50.462Z,1005.85
2018-06-21T06:45:50.451Z,1005.89
2018-06-21T06:46:50.438Z,1005.9
2018-06-21T06:47:50.425Z,1005.94
2018-06-21T06:48:50.414Z,1005.98
2018-06-21T06:49:50.410Z,1006
2018-06-21T06:50:50.393Z,1006.04
2018-06-21T06:51:50.380Z,1006.03
2018-06-21T06:52:50.367Z,1006.03
2018-06-21T06:53:50.354Z,1006.06
2018-06-21T06:54:50.446Z,1006.06
2018-06-21T06:55:50.331Z,1006.05
2018-06-21T06:56:50.322Z,1006.02
2018-06-21T06:57:50.308Z,1006.05
2018-06-21T06:58:50.298Z,1006.08
2018-06-21T06:59:50.305Z,1006.07
2018-06-21T07:00:50.276Z,1006.14
2018-06-21T07:01:50.265Z,1006.13
2018-06-21T07:02:50.249Z,1006.19
2018-06-21T07:03:50.235Z,1006.16
2018-06-21T07:04:50.228Z,1006.15
2018-06-21T07:05:50.217Z,1006.14
2018-06-21T07:06:50.198Z,1006.15
2018-06-21T07:07:50.188Z,1006.19
2018-06-21T07:08:50.176Z,1006.19
2018-06-21T07:09:50.165Z,1006.24
2018-06-21T07:10:50.154Z,1006.21
2018-06-21T07:11:50.150Z,1006.22
2018-06-21T07:12:50.131Z,1006.24
2018-06-21T07:13:50.118Z,1006.28
2018-06-21T07:14:50.105Z,1006.23
2018-06-21T07:15:50.093Z,1006.26
2018-06-21T07:16:50.284Z,1006.29
2018-06-21T07:17:50.073Z,1006.21
2018-06-21T07:18:50.056Z,1006.25
2018-06-21T07:19:50.049Z,1006.27
2018-06-21T07:20:50.036Z,1006.27
2018-06-21T07:21:50.024Z,1006.34
2018-06-21T07:22:50.013Z,1006.32
2018-06-21T07:23:50.000Z,1006.28
2018-06-21T07:24:49.989Z,1006.26
2018-06-21T07:25:49.981Z,1006.31
2018-06-21T07:26:49.973Z,1006.29
2018-06-21T07:27:49.955Z,1006.37
2018-06-21T07:28:49.943Z,1006.37
2018-06-21T07:29:50.000Z,1006.39
2018-06-21T07:30:49.925Z,1006.41
2018-06-21T07:31:49.912Z,1006.5
2018-06-21T07:32:49.904Z,1006.49
2018-06-21T07:33:49.892Z,1006.47
2018-06-21T07:34:49.880Z,1006.5
2018-06-21T07:35:49.870Z,1006.46
2018-06-21T07:36:49.860Z,1006.49
2018-06-21T07:37:49.850Z,1006.52
2018-06-21T07:38:49.907Z,1006.55
2018-06-21T07:39:49.829Z,1006.62
2018-06-21T07:40:49.815Z,1006.63
2018-06-21T07:41:49.809Z,1006.55
2018-06-21T07:42:49.796Z,1006.49
2018-06-21T07:43:49.785Z,1006.55
2018-06-21T07:44:49.778Z,1006.59
2018-06-21T07:45:49.772Z,1006.55
2018-06-21T07:46:49.810Z,1006.53
2018-06-21T07:47:49.747Z,1006.51
2018-06-21T07:48:49.738Z,1006.51
2018-06-21T07:49:49.732Z,1006.57
2018-06-21T07:50:49.719Z,1006.65
2018-06-21T07:51:49.710Z,1006.57
2018-06-21T07:52:49.703Z,1006.59
2018-06-21T07:53:49.754Z,1006.63
2018-06-21T07:54:49.680Z,1006.59
2018-06-21T07:55:49.669Z,1006.63
2018-06-21T07:56:49.660Z,1006.53
2018-06-21T07:57:49.650Z,1006.62
2018-06-21T07:58:49.640Z,1006.79
2018-06-21T07:59:49.633Z,1006.82
2018-06-21T08:00:49.622Z,1006.97
2018-06-21T08:01:49.612Z,1006.91
2018-06-21T08:02:49.603Z,1006.92
2018-06-21T08:03:49.598Z,1006.82
2018-06-21T08:04:49.582Z,1006.85
2018-06-21T08:05:49.571Z,1006.89
2018-06-21T08:06:49.562Z,1006.97
2018-06-21T08:07:49.558Z,1006.96
2018-06-21T08:08:49.543Z,1006.93
2018-06-21T08:09:49.529Z,1007.04
2018-06-21T08:10:49.522Z,1006.96
2018-06-21T08:11:49.511Z,1006.98
2018-06-21T08:12:49.514Z,1007.03
2018-06-21T08:13:49.491Z,1007.05
2018-06-21T08:14:49.477Z,1007.11
2018-06-21T08:15:49.495Z,1007.16
2018-06-21T08:16:49.461Z,1007.09
2018-06-21T08:17:49.447Z,1007.1
2018-06-21T08:18:49.436Z,1007.11
2018-06-21T08:19:49.426Z,1007.16
2018-06-21T08:20:49.418Z,1007.21
2018-06-21T08:21:49.408Z,1007.16
2018-06-21T08:22:49.399Z,1007.18
2018-06-21T08:23:49.385Z,1007.24
2018-06-21T08:24:49.385Z,1007.31
2018-06-21T08:25:49.371Z,1007.32
2018-06-21T08:26:49.373Z,1007.33
2018-06-21T08:27:49.348Z,1007.4
2018-06-21T08:28:49.341Z,1007.39
2018-06-21T08:29:49.332Z,1007.48
2018-06-21T08:30:49.319Z,1007.4
2018-06-21T08:31:49.311Z,1007.45
2018-06-21T08:32:49.302Z,1007.42
2018-06-21T08:33:49.292Z,1007.54
2018-06-21T08:34:49.285Z,1007.58
2018-06-21T08:35:49.276Z,1007.63
2018-06-21T08:36:49.268Z,1007.6
2018-06-21T08:37:49.259Z,1007.58
2018-06-21T08:38:49.309Z,1007.49
2018-06-21T08:39:49.243Z,1007.63
2018-06-21T08:40:49.234Z,1007.61
2018-06-21T08:41:49.228Z,1007.67
2018-06-21T08:42:49.218Z,1007.59
2018-06-21T08:43:49.211Z,1007.59
2018-06-21T08:44:49.205Z,1007.62
2018-06-21T08:45:49.223Z,1007.61
2018-06-21T08:46:49.184Z,1007.79
2018-06-21T08:47:49.178Z,1008.15
2018-06-21T08:48:49.170Z,1007.67
2018-06-21T08:49:49.162Z,1007.76
2018-06-21T08:50:49.153Z,1007.59
2018-06-21T08:51:49.149Z,1007.68
2018-06-21T08:52:49.138Z,1007.9
2018-06-21T08:53:49.137Z,1007.65
2018-06-21T08:54:49.123Z,1008.22
2018-06-21T08:55:49.114Z,1007.77
2018-06-21T08:56:49.107Z,1007.94
2018-06-21T08:57:49.102Z,1007.65
2018-06-21T08:58:49.094Z,1007.69
2018-06-21T08:59:49.086Z,1007.67
2018-06-21T09:00:49.080Z,1007.65
2018-06-21T09:01:49.076Z,1007.72
2018-06-21T09:02:49.065Z,1007.89
2018-06-21T09:03:49.176Z,1007.68
2018-06-21T09:04:49.049Z,1007.78
2018-06-21T09:05:49.047Z,1007.73
2018-06-21T09:06:49.035Z,1007.77
2018-06-21T09:07:49.026Z,1007.85
2018-06-21T09:08:49.017Z,1007.87
2018-06-21T09:09:49.010Z,1007.97
2018-06-21T09:10:49.002Z,1007.99
2018-06-21T09:11:49.000Z,1007.93
2018-06-21T09:12:48.988Z,1007.87
2018-06-21T09:13:48.980Z,1007.87
2018-06-21T09:14:48.969Z,1008.05
2018-06-21T09:15:49.236Z,1008.11
2018-06-21T09:16:49.161Z,1008
2018-06-21T09:17:48.951Z,1007.93
2018-06-21T09:18:48.940Z,1008.03
2018-06-21T09:19:48.931Z,1008.08
2018-06-21T09:20:48.923Z,1008.65
2018-06-21T09:21:48.913Z,1008.22
2018-06-21T09:22:48.909Z,1008.09
2018-06-21T09:23:48.899Z,1008.07
2018-06-21T09:24:48.894Z,1008.17
2018-06-21T09:25:48.883Z,1008.7
2018-06-21T09:26:48.874Z,1008.46
2018-06-21T09:27:48.867Z,1008.39
2018-06-21T09:28:48.860Z,1008.22
2018-06-21T09:29:48.904Z,1008.24
2018-06-21T09:30:48.846Z,1008.24
2018-06-21T09:31:48.844Z,1008.12
2018-06-21T09:32:48.831Z,1008.19
2018-06-21T09:33:48.827Z,1008.22
2018-06-21T09:34:48.870Z,1008.16
2018-06-21T09:35:48.815Z,1008.25
2018-06-21T09:36:48.805Z,1008.12
2018-06-21T09:37:48.802Z,1008.21
2018-06-21T09:38:48.792Z,1008.29
2018-06-21T09:39:48.865Z,1008.36
2018-06-21T09:40:48.780Z,1008.12
2018-06-21T09:41:48.784Z,1008.12
2018-06-21T09:42:48.764Z,1008.07
2018-06-21T09:44:03.403Z,1008.08
2018-06-21T09:44:48.749Z,1008.05
2018-06-21T09:45:48.742Z,1008.08
2018-06-21T09:46:48.735Z,1008.02
2018-06-21T09:47:48.727Z,1008.21
2018-06-21T09:48:48.718Z,1008.2
2018-06-21T09:49:48.710Z,1008.25
2018-06-21T09:50:48.703Z,1008.27
2018-06-21T09:51:48.698Z,1008.31
2018-06-21T09:52:48.690Z,1008.44
2018-06-21T09:53:48.677Z,1008.4
2018-06-21T09:54:48.668Z,1008.41
2018-06-21T09:55:48.660Z,1008.52
2018-06-21T09:56:48.649Z,1008.39
2018-06-21T09:57:48.782Z,1008.43
2018-06-21T09:58:48.631Z,1008.44
2018-06-21T09:59:48.621Z,1008.5
2018-06-21T10:00:48.618Z,1008.49
2018-06-21T10:01:48.601Z,1008.53
2018-06-21T10:02:48.591Z,1009.09
2018-06-21T10:03:48.583Z,1008.65
2018-06-21T10:04:48.579Z,1009.16
2018-06-21T10:05:48.563Z,1009.13
2018-06-21T10:06:48.559Z,1009.12
2018-06-21T10:07:48.547Z,1009.22
2018-06-21T10:08:48.543Z,1009.18
2018-06-21T10:09:48.533Z,1009.19
2018-06-21T10:10:48.523Z,1009.19
2018-06-21T10:11:48.514Z,1009.2
2018-06-21T10:12:48.509Z,1009.26
2018-06-21T10:13:48.505Z,1009.23
2018-06-21T10:14:48.503Z,1008.67
2018-06-21T10:15:48.572Z,1008.94
2018-06-21T10:16:48.486Z,1008.67
2018-06-21T10:17:48.482Z,1008.66
2018-06-21T10:18:48.482Z,1008.56
2018-06-21T10:19:48.481Z,1008.73
2018-06-21T10:20:48.468Z,1008.69
2018-06-21T10:21:48.465Z,1008.7
2018-06-21T10:22:48.459Z,1008.63
2018-06-21T10:23:48.452Z,1009.34
2018-06-21T10:24:48.445Z,1008.74
2018-06-21T10:25:48.444Z,1008.74
2018-06-21T10:26:48.440Z,1008.72
2018-06-21T10:27:48.431Z,1008.75
2018-06-21T10:28:48.425Z,1008.67
2018-06-21T10:29:48.421Z,1008.73
2018-06-21T10:30:48.416Z,1008.71
2018-06-21T10:31:48.406Z,1008.88
2018-06-21T10:32:48.400Z,1009.35
2018-06-21T10:33:48.395Z,1009.32
2018-06-21T10:34:48.385Z,1009.37
2018-06-21T10:35:48.379Z,1009.45
2018-06-21T10:36:48.375Z,1009.41
2018-06-21T10:37:48.370Z,1009.44
2018-06-21T10:38:48.363Z,1009.51
2018-06-21T10:39:48.362Z,1009.52
2018-06-21T10:40:48.355Z,1009.52
2018-06-21T10:41:48.350Z,1009.5
2018-06-21T10:42:48.348Z,1009.52
2018-06-21T10:43:48.344Z,1009.1
2018-06-21T10:44:48.342Z,1009.11
2018-06-21T10:45:48.338Z,1009.08
2018-06-21T10:46:48.334Z,1009.12
2018-06-21T10:47:48.334Z,1009.21
2018-06-21T10:48:48.328Z,1009.15
2018-06-21T10:49:48.323Z,1009.25
2018-06-21T10:50:48.321Z,1009.31
2018-06-21T10:51:48.316Z,1009.19
2018-06-21T10:52:48.314Z,1009.35
2018-06-21T10:53:48.307Z,1009.32
2018-06-21T10:54:48.304Z,1009.4
2018-06-21T10:55:48.298Z,1009.46
2018-06-21T10:56:48.296Z,1009.41
2018-06-21T10:57:48.293Z,1009.46
2018-06-21T10:58:48.290Z,1009.55
2018-06-21T10:59:48.288Z,1009.39
2018-06-21T11:00:48.287Z,1009.49
2018-06-21T11:01:48.287Z,1009.55
2018-06-21T11:02:48.285Z,1009.55
2018-06-21T11:03:48.290Z,1009.51
2018-06-21T11:04:48.280Z,1009.37
2018-06-21T11:05:48.280Z,1009.35
2018-06-21T11:06:48.281Z,1009.39
2018-06-21T11:07:48.278Z,1009.41
2018-06-21T11:08:48.277Z,1009.46
2018-06-21T11:09:48.278Z,1009.45
2018-06-21T11:10:48.276Z,1009.58
2018-06-21T11:11:48.273Z,1009.57
2018-06-21T11:12:48.276Z,1009.56
2018-06-21T11:13:48.270Z,1009.54
2018-06-21T11:14:48.335Z,1009.57
2018-06-21T11:15:48.266Z,1009.68
2018-06-21T11:16:48.488Z,1009.66
2018-06-21T11:17:48.265Z,1009.68
2018-06-21T11:18:48.264Z,1009.6
2018-06-21T11:19:48.262Z,1009.52
2018-06-21T11:20:48.264Z,1009.64
2018-06-21T11:21:48.261Z,1009.77
2018-06-21T11:22:48.260Z,1009.73
2018-06-21T11:23:48.258Z,1009.74
2018-06-21T11:24:48.256Z,1009.77
2018-06-21T11:25:48.256Z,1009.84
2018-06-21T11:26:48.248Z,1009.81
2018-06-21T11:27:48.285Z,1009.82
2018-06-21T11:28:48.245Z,1009.92
2018-06-21T11:29:48.241Z,1009.96
2018-06-21T11:30:48.236Z,1009.85
2018-06-21T11:31:48.236Z,1009.94
2018-06-21T11:32:48.234Z,1010.11
2018-06-21T11:33:48.231Z,1010.01
2018-06-21T11:34:48.226Z,1009.93
2018-06-21T11:35:48.225Z,1009.92
2018-06-21T11:36:48.228Z,1009.91
2018-06-21T11:37:48.222Z,1009.89
2018-06-21T11:38:48.224Z,1009.89
2018-06-21T11:39:48.223Z,1009.99
2018-06-21T11:40:48.220Z,1009.88
2018-06-21T11:41:48.222Z,1010.01
2018-06-21T11:42:48.220Z,1010.01
2018-06-21T11:43:48.220Z,1009.99
2018-06-21T11:44:48.225Z,1010.02
2018-06-21T11:45:48.220Z,1009.98
2018-06-21T11:46:48.307Z,1009.89
2018-06-21T11:47:48.224Z,1009.99
2018-06-21T11:48:48.226Z,1010.1
2018-06-21T11:49:48.226Z,1010.03
2018-06-21T11:50:48.231Z,1010.17
2018-06-21T11:51:48.227Z,1010.06
2018-06-21T11:52:48.231Z,1010.07
2018-06-21T11:53:48.233Z,1010.07
2018-06-21T11:54:48.236Z,1010.03
2018-06-21T11:55:48.234Z,1010
2018-06-21T11:56:48.237Z,1009.97
2018-06-21T11:57:48.239Z,1010.01
2018-06-21T11:58:48.238Z,1010.05
2018-06-21T11:59:48.240Z,1010.14
2018-06-21T12:00:48.241Z,1010.14
2018-06-21T12:01:48.317Z,1010.2
2018-06-21T12:02:48.241Z,1010.21
2018-06-21T12:03:48.240Z,1010.1
2018-06-21T12:04:48.241Z,1010.11
2018-06-21T12:05:48.242Z,1010.08
2018-06-21T12:06:48.241Z,1010.23
2018-06-21T12:07:48.238Z,1010.26